Time;durP1;ratioP1;P1;durP2;ratioP2;P2;SDS_P1;SDS_P2;PMS_P1;PMS_P2;Temp;Humidity;BMP_temperature;BMP_pressure;BME280_temperature;BME280_humidity;BME280_pressure;Samples;Min_cycle;Max_cycle;Signal;HPM_P1;HPM_P2
2023/08/15 00:01:27;;;;;;;2.92;1.35;;;26.00;54.50;;;;;;5055574;28;20371;-71
2023/08/15 00:03:53;;;;;;;2.38;1.48;;;26.10;54.70;;;;;;5073916;28;20017;-69
2023/08/15 00:06:20;;;;;;;3.03;1.30;;;26.10;54.70;;;;;;5061377;28;20119;-71
2023/08/15 00:08:53;;;;;;;3.00;1.20;;;26.00;54.70;;;;;;5075298;28;20195;-70
2023/08/15 00:11:23;;;;;;;2.42;1.40;;;26.00;54.80;;;;;;5073465;28;20081;-70
2023/08/15 00:13:50;;;;;;;1.95;1.17;;;26.00;54.90;;;;;;5059699;28;20114;-69
2023/08/15 00:16:15;;;;;;;3.50;1.58;;;26.00;54.90;;;;;;5072177;28;20123;-71
2023/08/15 00:18:42;;;;;;;3.03;1.48;;;26.00;55.00;;;;;;5036824;28;20407;-71
2023/08/15 00:21:08;;;;;;;2.88;1.35;;;26.00;55.10;;;;;;5076512;28;20089;-71
2023/08/15 00:23:34;;;;;;;2.88;1.35;;;26.00;55.20;;;;;;5058548;28;20100;-68
2023/08/15 00:26:00;;;;;;;4.45;1.42;;;26.00;55.20;;;;;;5075781;28;20038;-68
2023/08/15 00:28:26;;;;;;;2.90;1.65;;;26.00;55.30;;;;;;5053425;28;20029;-70
2023/08/15 00:30:52;;;;;;;3.15;1.55;;;26.00;55.40;;;;;;5077430;28;20092;-68
2023/08/15 00:33:18;;;;;;;2.65;1.70;;;26.00;55.40;;;;;;5077705;28;20028;-70
2023/08/15 00:35:44;;;;;;;2.85;1.60;;;26.00;55.50;;;;;;5070565;28;20389;-70
2023/08/15 00:38:10;;;;;;;1.90;1.40;;;26.00;55.50;;;;;;5077759;28;20063;-68
2023/08/15 00:40:39;;;;;;;1.98;1.20;;;26.00;55.50;;;;;;5072880;28;20307;-70
2023/08/15 00:43:06;;;;;;;2.92;1.50;;;26.00;55.60;;;;;;5057970;28;20558;-70
2023/08/15 00:45:34;;;;;;;1.92;1.10;;;26.00;55.70;;;;;;5075582;28;20067;-71
2023/08/15 00:48:00;;;;;;;3.28;1.50;;;26.00;55.70;;;;;;5039263;28;20343;-71
2023/08/15 00:50:26;;;;;;;1.90;1.38;;;26.00;55.80;;;;;;5051847;28;20064;-71
2023/08/15 00:52:54;;;;;;;3.10;1.67;;;26.00;55.80;;;;;;5074911;28;20028;-68
2023/08/15 00:55:20;;;;;;;2.67;1.63;;;26.00;55.80;;;;;;5068086;28;20049;-70
2023/08/15 00:57:46;;;;;;;1.77;1.23;;;26.00;55.90;;;;;;5057924;28;20344;-71
2023/08/15 01:00:14;;;;;;;3.30;1.52;;;26.00;55.90;;;;;;5055406;28;20043;-71
2023/08/15 01:02:40;;;;;;;3.13;1.58;;;26.00;55.90;;;;;;5074951;28;20417;-69
2023/08/15 01:05:07;;;;;;;3.75;1.50;;;26.00;55.90;;;;;;5037834;28;20024;-71
2023/08/15 01:07:33;;;;;;;2.35;1.50;;;26.00;56.00;;;;;;5063230;28;20039;-70
2023/08/15 01:09:59;;;;;;;2.67;1.77;;;26.00;56.00;;;;;;5072638;28;20040;-71
2023/08/15 01:12:38;;;;;;;2.50;1.48;;;26.00;56.10;;;;;;5073573;28;20028;-70
2023/08/15 01:15:08;;;;;;;2.65;1.52;;;25.90;56.00;;;;;;5070701;28;20029;-70
2023/08/15 01:17:49;;;;;;;3.10;1.65;;;25.90;56.10;;;;;;5046553;28;20047;-68
2023/08/15 01:20:20;;;;;;;1.73;1.38;;;26.00;56.20;;;;;;5068108;28;20036;-68
2023/08/15 01:22:51;;;;;;;3.30;1.60;;;25.90;56.20;;;;;;5074953;28;20027;-69
2023/08/15 01:25:17;;;;;;;2.00;1.40;;;25.90;56.30;;;;;;5070667;28;20397;-69
2023/08/15 01:27:43;;;;;;;2.72;1.95;;;25.90;56.30;;;;;;5071842;28;20136;-69
2023/08/15 01:30:10;;;;;;;2.83;1.38;;;25.90;56.40;;;;;;5067369;28;20184;-70
2023/08/15 01:32:42;;;;;;;3.30;1.60;;;25.90;56.40;;;;;;5074694;28;20099;-68
2023/08/15 01:35:21;;;;;;;2.05;1.58;;;25.90;57.10;;;;;;5054012;28;20101;-68
2023/08/15 01:37:55;;;;;;;2.15;1.50;;;25.90;56.50;;;;;;5071199;28;20040;-71
2023/08/15 01:40:22;;;;;;;2.75;1.70;;;25.90;57.20;;;;;;5077073;28;20028;-70
2023/08/15 01:42:50;;;;;;;2.58;1.48;;;25.90;56.60;;;;;;5043922;28;20130;-69
2023/08/15 01:45:17;;;;;;;2.47;1.73;;;25.90;56.70;;;;;;5077102;28;20035;-70
2023/08/15 01:47:43;;;;;;;2.10;1.40;;;25.90;56.70;;;;;;5067006;28;20072;-68
2023/08/15 01:50:09;;;;;;;2.40;1.65;;;25.90;56.80;;;;;;5074901;28;20459;-70
2023/08/15 01:52:35;;;;;;;2.17;1.60;;;25.90;56.80;;;;;;5058238;28;20118;-69
2023/08/15 01:55:01;;;;;;;2.30;1.60;;;25.90;56.90;;;;;;5048729;28;20020;-70
2023/08/15 01:57:27;;;;;;;2.00;1.40;;;25.90;56.90;;;;;;5055352;28;20375;-70
2023/08/15 01:59:53;;;;;;;3.40;2.10;;;25.90;57.00;;;;;;5042518;28;20033;-70
2023/08/15 02:02:19;;;;;;;2.63;1.60;;;25.90;57.00;;;;;;5066442;28;20040;-71
2023/08/15 02:04:46;;;;;;;3.47;1.58;;;25.90;57.00;;;;;;5069545;28;20036;-70
2023/08/15 02:07:11;;;;;;;3.28;1.48;;;25.90;57.10;;;;;;5050810;28;20111;-70
2023/08/15 02:09:37;;;;;;;3.22;1.75;;;25.90;57.10;;;;;;5074524;28;20102;-72
2023/08/15 02:12:03;;;;;;;2.45;1.60;;;25.90;57.10;;;;;;5069028;28;20027;-68
2023/08/15 02:14:29;;;;;;;2.08;1.60;;;25.90;57.20;;;;;;5052133;28;20462;-68
2023/08/15 02:16:55;;;;;;;4.07;1.55;;;25.90;57.20;;;;;;5069178;28;20044;-70
2023/08/15 02:19:21;;;;;;;3.60;1.55;;;25.90;57.20;;;;;;5073573;28;21696;-69
2023/08/15 02:21:47;;;;;;;2.50;1.55;;;25.90;57.30;;;;;;5068913;28;20152;-70
2023/08/15 02:24:13;;;;;;;2.25;1.50;;;25.80;57.20;;;;;;5069788;28;20166;-68
2023/08/15 02:26:39;;;;;;;2.40;1.55;;;25.90;57.30;;;;;;5044160;28;20038;-70
2023/08/15 02:29:05;;;;;;;2.85;1.70;;;25.90;57.30;;;;;;5058218;28;20418;-70
2023/08/15 02:31:31;;;;;;;3.28;1.73;;;25.80;57.30;;;;;;5046567;28;20040;-69
2023/08/15 02:33:56;;;;;;;2.42;1.63;;;25.90;57.30;;;;;;5070440;28;20086;-68
2023/08/15 02:36:22;;;;;;;4.95;1.67;;;25.90;57.30;;;;;;5053170;28;20028;-69
2023/08/15 02:38:48;;;;;;;2.20;1.60;;;25.90;57.30;;;;;;5070554;28;20183;-70
2023/08/15 02:41:14;;;;;;;2.95;1.67;;;25.80;57.20;;;;;;5071596;28;20036;-72
2023/08/15 02:43:40;;;;;;;3.00;1.80;;;25.80;57.20;;;;;;5066883;28;20035;-69
2023/08/15 02:46:06;;;;;;;3.20;1.65;;;25.80;57.10;;;;;;5069571;28;20077;-72
2023/08/15 02:48:33;;;;;;;3.35;1.80;;;25.80;57.10;;;;;;5055434;28;20115;-71
2023/08/15 02:50:59;;;;;;;3.35;1.85;;;25.80;57.00;;;;;;5052474;28;20032;-71
2023/08/15 02:53:25;;;;;;;3.40;1.73;;;25.80;57.00;;;;;;5054638;28;20386;-69
2023/08/15 02:55:51;;;;;;;2.88;1.70;;;25.80;57.00;;;;;;5058698;28;20072;-70
2023/08/15 02:58:18;;;;;;;2.50;1.70;;;25.80;56.90;;;;;;5065864;28;20063;-68
2023/08/15 03:00:44;;;;;;;3.47;1.67;;;25.80;56.80;;;;;;5069567;28;20032;-69
2023/08/15 03:03:10;;;;;;;2.13;1.58;;;25.80;56.80;;;;;;5047855;28;20428;-69
2023/08/15 03:05:38;;;;;;;2.53;1.20;;;25.80;56.70;;;;;;5073132;28;20426;-70
2023/08/15 03:08:05;;;;;;;2.20;1.45;;;25.80;56.70;;;;;;5065758;28;20107;-68
2023/08/15 03:10:32;;;;;;;2.30;1.52;;;25.80;56.60;;;;;;5072106;28;20028;-69
2023/08/15 03:13:00;;;;;;;3.33;1.60;;;25.80;56.50;;;;;;5071127;28;20093;-71
2023/08/15 03:15:26;;;;;;;3.08;1.70;;;25.80;56.50;;;;;;5055021;28;20020;-69
2023/08/15 03:17:52;;;;;;;2.42;1.50;;;25.80;56.50;;;;;;5051824;28;20059;-69
2023/08/15 03:20:18;;;;;;;2.35;1.50;;;25.80;56.40;;;;;;5054123;28;20025;-69
2023/08/15 03:22:44;;;;;;;3.05;1.65;;;25.80;56.40;;;;;;5073508;28;20314;-69
2023/08/15 03:25:10;;;;;;;3.25;1.80;;;25.80;56.30;;;;;;5051643;28;20069;-70
2023/08/15 03:27:36;;;;;;;3.25;1.60;;;25.80;56.30;;;;;;5078057;28;20120;-68
2023/08/15 03:30:02;;;;;;;4.13;1.80;;;25.80;56.30;;;;;;5060168;28;20043;-69
2023/08/15 03:32:29;;;;;;;2.88;1.60;;;25.80;56.20;;;;;;5060475;28;20085;-69
2023/08/15 03:34:55;;;;;;;2.72;1.75;;;25.80;56.20;;;;;;5054897;28;20080;-68
2023/08/15 03:37:22;;;;;;;1.83;1.20;;;25.80;56.10;;;;;;5072071;28;20045;-70
2023/08/15 03:39:48;;;;;;;2.60;1.33;;;25.80;56.10;;;;;;5077402;28;20032;-70
2023/08/15 03:42:14;;;;;;;3.47;1.40;;;25.80;56.00;;;;;;5054748;28;20075;-64
2023/08/15 03:44:40;;;;;;;4.47;1.75;;;25.80;56.00;;;;;;5063204;28;20197;-67
2023/08/15 03:47:06;;;;;;;3.25;1.65;;;25.70;55.80;;;;;;5068276;28;20060;-69
2023/08/15 03:49:32;;;;;;;2.15;1.35;;;25.80;55.80;;;;;;5061193;28;20044;-69
2023/08/15 03:51:58;;;;;;;5.22;1.65;;;25.70;55.70;;;;;;5061437;28;20029;-68
2023/08/15 03:54:24;;;;;;;1.77;1.20;;;25.70;55.60;;;;;;5052004;28;20024;-69
2023/08/15 03:56:49;;;;;;;2.67;1.40;;;25.70;55.60;;;;;;5070808;28;20035;-71
2023/08/15 03:59:15;;;;;;;3.25;1.42;;;25.70;55.50;;;;;;5077274;28;20055;-70
2023/08/15 04:01:41;;;;;;;3.92;1.58;;;25.70;55.40;;;;;;5053145;28;20039;-70
2023/08/15 04:04:07;;;;;;;2.35;1.50;;;25.70;55.30;;;;;;5058417;28;20371;-70
2023/08/15 04:06:33;;;;;;;1.90;1.45;;;25.70;55.30;;;;;;5037211;28;20412;-69
2023/08/15 04:08:59;;;;;;;3.47;1.42;;;25.70;55.20;;;;;;5056790;28;20099;-67
2023/08/15 04:11:25;;;;;;;1.92;1.10;;;25.70;55.20;;;;;;5059385;28;20028;-69
2023/08/15 04:13:51;;;;;;;2.72;1.40;;;25.70;55.10;;;;;;5070600;28;20163;-68
2023/08/15 04:16:16;;;;;;;2.25;1.35;;;25.70;55.10;;;;;;5061483;28;20074;-71
2023/08/15 04:18:42;;;;;;;2.50;1.35;;;25.70;55.00;;;;;;5050170;28;20444;-68
2023/08/15 04:21:11;;;;;;;3.33;1.40;;;25.70;55.00;;;;;;5057877;28;20915;-70
2023/08/15 04:23:37;;;;;;;2.58;1.35;;;25.70;54.90;;;;;;5056511;28;20032;-70
2023/08/15 04:26:03;;;;;;;3.60;1.70;;;25.70;55.50;;;;;;5078471;28;20039;-68
2023/08/15 04:28:29;;;;;;;3.53;1.40;;;25.70;54.90;;;;;;5035417;28;20028;-70
2023/08/15 04:30:55;;;;;;;3.15;1.60;;;25.70;54.80;;;;;;5045347;28;20471;-69
2023/08/15 04:33:21;;;;;;;2.58;1.13;;;25.70;54.90;;;;;;5051295;28;20020;-70
2023/08/15 04:35:47;;;;;;;2.30;1.20;;;25.70;54.80;;;;;;5061043;28;20396;-70
2023/08/15 04:38:14;;;;;;;3.13;1.45;;;25.60;54.70;;;;;;5078900;28;20048;-70
2023/08/15 04:40:40;;;;;;;2.70;1.25;;;25.70;54.80;;;;;;5057645;28;20017;-69
2023/08/15 04:43:08;;;;;;;2.35;1.23;;;25.70;54.70;;;;;;5051976;28;20051;-70
2023/08/15 04:45:40;;;;;;;2.58;0.93;;;25.60;54.70;;;;;;5051097;28;20027;-68
2023/08/15 04:48:09;;;;;;;2.38;1.38;;;25.60;54.60;;;;;;5056187;28;20045;-69
2023/08/15 04:50:36;;;;;;;2.90;1.23;;;25.60;54.60;;;;;;5055664;28;20093;-69
2023/08/15 04:53:03;;;;;;;3.35;1.58;;;25.60;54.60;;;;;;5049033;28;20048;-68
2023/08/15 04:55:29;;;;;;;2.25;0.90;;;25.60;54.60;;;;;;5054605;28;20451;-70
2023/08/15 04:57:55;;;;;;;3.42;1.20;;;25.60;54.70;;;;;;5052874;28;20100;-71
2023/08/15 05:00:22;;;;;;;2.85;1.33;;;25.60;54.60;;;;;;5040586;28;20047;-68
2023/08/15 05:02:48;;;;;;;2.03;1.20;;;25.60;54.60;;;;;;5052542;28;20404;-70
2023/08/15 05:05:15;;;;;;;2.22;1.15;;;25.60;54.60;;;;;;5053817;28;20075;-67
2023/08/15 05:07:41;;;;;;;2.22;1.17;;;25.60;54.60;;;;;;5050797;28;20068;-70
2023/08/15 05:10:08;;;;;;;2.42;1.00;;;25.60;54.60;;;;;;5051865;28;20108;-68
2023/08/15 05:12:36;;;;;;;1.70;1.10;;;25.60;54.60;;;;;;5054968;28;20033;-68
2023/08/15 05:15:02;;;;;;;3.63;1.35;;;25.60;55.20;;;;;;5052311;28;20313;-70
2023/08/15 05:17:28;;;;;;;3.00;1.25;;;25.60;54.60;;;;;;5033099;28;20057;-70
2023/08/15 05:19:54;;;;;;;2.28;1.25;;;25.60;54.60;;;;;;5051682;28;20040;-69
2023/08/15 05:22:20;;;;;;;1.90;1.05;;;25.60;54.60;;;;;;5056115;28;20374;-70
2023/08/15 05:24:47;;;;;;;2.55;1.30;;;25.60;54.60;;;;;;5048310;28;20112;-68
2023/08/15 05:27:13;;;;;;;3.85;1.20;;;25.60;54.60;;;;;;5071629;28;20183;-67
2023/08/15 05:29:43;;;;;;;2.00;1.10;;;25.60;54.50;;;;;;5050360;28;20024;-69
2023/08/15 05:32:10;;;;;;;3.45;1.15;;;25.60;54.50;;;;;;5051754;28;20104;-68
2023/08/15 05:34:36;;;;;;;2.88;1.20;;;25.60;54.50;;;;;;5051207;28;20041;-67
2023/08/15 05:37:01;;;;;;;2.63;0.90;;;25.60;54.50;;;;;;5055879;28;20041;-71
2023/08/15 05:39:27;;;;;;;3.05;1.20;;;25.60;54.50;;;;;;5071048;28;20056;-68
2023/08/15 05:41:53;;;;;;;2.20;1.23;;;25.60;54.50;;;;;;5050804;28;20031;-69
2023/08/15 05:44:19;;;;;;;3.33;1.20;;;25.60;54.50;;;;;;5055091;28;20404;-70
2023/08/15 05:46:45;;;;;;;1.85;1.02;;;25.60;54.60;;;;;;5049360;28;20103;-69
2023/08/15 05:49:11;;;;;;;2.35;1.33;;;25.60;54.60;;;;;;5047473;28;20029;-70
2023/08/15 05:51:37;;;;;;;2.33;1.05;;;25.60;54.60;;;;;;5043732;28;20104;-71
2023/08/15 05:54:02;;;;;;;2.80;1.40;;;25.60;54.60;;;;;;5049878;28;20047;-68
2023/08/15 05:56:28;;;;;;;2.30;1.10;;;25.60;54.60;;;;;;5048290;28;20024;-70
2023/08/15 05:58:54;;;;;;;2.50;0.90;;;25.60;54.60;;;;;;5050273;28;20134;-69
2023/08/15 06:01:21;;;;;;;2.95;1.10;;;25.60;54.70;;;;;;5051816;28;20035;-70
2023/08/15 06:03:47;;;;;;;4.15;1.38;;;25.60;54.70;;;;;;5046653;28;20448;-69
2023/08/15 06:06:13;;;;;;;4.15;1.10;;;25.60;54.70;;;;;;5050683;28;20033;-69
2023/08/15 06:08:39;;;;;;;2.33;1.10;;;25.60;54.70;;;;;;5041575;28;20029;-70
2023/08/15 06:11:05;;;;;;;2.40;1.13;;;25.60;54.70;;;;;;5046402;28;20034;-68
2023/08/15 06:13:31;;;;;;;2.33;1.30;;;25.60;54.70;;;;;;5049801;28;20032;-70
2023/08/15 06:15:57;;;;;;;3.88;1.20;;;25.60;54.70;;;;;;5052680;28;20034;-70
2023/08/15 06:18:23;;;;;;;2.72;1.15;;;25.60;54.80;;;;;;5047946;28;20067;-70
2023/08/15 06:20:49;;;;;;;2.75;0.93;;;25.60;54.80;;;;;;5049896;28;20101;-69
2023/08/15 06:23:15;;;;;;;2.78;1.33;;;25.60;54.70;;;;;;5050008;28;20431;-71
2023/08/15 06:25:41;;;;;;;2.42;0.98;;;25.60;54.80;;;;;;5048698;28;20029;-69
2023/08/15 06:28:08;;;;;;;2.13;0.88;;;25.60;54.80;;;;;;5049284;28;20039;-68
2023/08/15 06:30:34;;;;;;;1.60;0.95;;;25.60;54.80;;;;;;5048288;28;20024;-71
2023/08/15 06:33:00;;;;;;;2.97;1.30;;;25.60;54.80;;;;;;5046896;28;20192;-72
2023/08/15 06:35:28;;;;;;;2.75;1.30;;;25.60;54.80;;;;;;5049098;28;20104;-67
2023/08/15 06:37:55;;;;;;;3.10;1.60;;;25.60;54.90;;;;;;5043060;28;20199;-69
2023/08/15 06:40:21;;;;;;;3.33;1.50;;;25.70;55.00;;;;;;5036206;28;20021;-67
2023/08/15 06:42:47;;;;;;;3.78;1.27;;;25.60;54.90;;;;;;5044071;28;20088;-69
2023/08/15 06:45:16;;;;;;;3.42;1.50;;;25.60;55.00;;;;;;5066375;28;20092;-67
2023/08/15 06:47:42;;;;;;;3.72;1.38;;;25.60;55.00;;;;;;5059205;28;20064;-67
2023/08/15 06:50:08;;;;;;;4.72;1.50;;;25.60;55.00;;;;;;5063777;28;20040;-70
2023/08/15 06:52:35;;;;;;;3.88;1.50;;;25.60;55.00;;;;;;5066896;28;20043;-71
2023/08/15 06:55:04;;;;;;;4.05;1.63;;;25.60;55.10;;;;;;5064272;28;20032;-67
2023/08/15 06:57:33;;;;;;;3.63;1.60;;;25.70;55.20;;;;;;5050873;28;20063;-69
2023/08/15 07:00:00;;;;;;;4.05;1.50;;;25.70;55.30;;;;;;5045456;28;20027;-68
2023/08/15 07:02:25;;;;;;;3.45;1.40;;;25.70;55.30;;;;;;5076151;28;20025;-67
2023/08/15 07:04:51;;;;;;;3.95;1.60;;;25.70;55.40;;;;;;5072107;28;20032;-68
2023/08/15 07:07:17;;;;;;;3.30;1.40;;;25.70;55.40;;;;;;5073650;28;20076;-69
2023/08/15 07:09:45;;;;;;;2.92;1.30;;;25.70;55.40;;;;;;5060365;28;20066;-68
2023/08/15 07:12:11;;;;;;;3.63;1.40;;;25.70;55.40;;;;;;5079336;28;20028;-69
2023/08/15 07:14:37;;;;;;;5.45;1.73;;;25.70;55.40;;;;;;5078864;28;20094;-70
2023/08/15 07:17:04;;;;;;;3.33;1.35;;;25.70;55.50;;;;;;5074609;28;20359;-66
2023/08/15 07:19:30;;;;;;;3.70;1.60;;;25.70;55.50;;;;;;5080946;28;20020;-69
2023/08/15 07:21:56;;;;;;;3.15;1.40;;;25.70;55.50;;;;;;5081751;28;20035;-67
2023/08/15 07:24:23;;;;;;;2.92;1.50;;;25.70;55.50;;;;;;5074268;28;20371;-70
2023/08/15 07:26:49;;;;;;;3.80;1.60;;;25.70;55.50;;;;;;5076570;28;20024;-70
2023/08/15 07:29:15;;;;;;;4.20;1.73;;;25.80;55.50;;;;;;5080363;28;20024;-68
2023/08/15 07:31:41;;;;;;;2.58;1.40;;;25.80;55.50;;;;;;5077742;28;20095;-67
2023/08/15 07:34:06;;;;;;;3.10;1.30;;;25.80;55.50;;;;;;5058316;28;20058;-70
2023/08/15 07:36:32;;;;;;;4.50;1.52;;;25.80;55.50;;;;;;5067048;28;20085;-71
2023/08/15 07:38:58;;;;;;;3.38;1.30;;;25.80;55.50;;;;;;5079727;28;20375;-72
2023/08/15 07:41:24;;;;;;;4.13;1.42;;;25.80;55.50;;;;;;5057304;28;20102;-70
2023/08/15 07:43:50;;;;;;;4.32;1.35;;;25.80;55.50;;;;;;5066232;28;20098;-71
2023/08/15 07:46:16;;;;;;;4.15;1.30;;;25.80;55.50;;;;;;5067196;28;20041;-70
2023/08/15 07:48:45;;;;;;;4.05;1.70;;;25.80;55.50;;;;;;5069945;28;20033;-69
2023/08/15 07:51:11;;;;;;;3.53;1.45;;;25.80;55.40;;;;;;5075681;28;20053;-71
2023/08/15 07:53:36;;;;;;;4.10;1.45;;;25.80;55.40;;;;;;5060151;28;20418;-68
2023/08/15 07:56:03;;;;;;;5.50;1.65;;;25.80;55.40;;;;;;5068305;28;20050;-70
2023/08/15 07:58:29;;;;;;;3.00;1.40;;;25.80;55.40;;;;;;5088032;28;20047;-69
2023/08/15 08:00:55;;;;;;;5.15;1.52;;;25.80;55.40;;;;;;5080516;28;20028;-70
2023/08/15 08:03:21;;;;;;;2.72;1.27;;;25.80;55.40;;;;;;5066674;28;20029;-70
2023/08/15 08:05:47;;;;;;;3.22;1.42;;;25.80;55.40;;;;;;5081374;28;20024;-68
2023/08/15 08:08:13;;;;;;;2.92;1.25;;;25.80;55.40;;;;;;5079636;28;20467;-68
2023/08/15 08:10:40;;;;;;;2.00;0.93;;;25.90;55.40;;;;;;5084374;28;20031;-68
2023/08/15 08:13:06;;;;;;;2.38;1.40;;;25.90;55.40;;;;;;5085282;28;20035;-67
2023/08/15 08:15:33;;;;;;;1.83;0.98;;;25.90;55.40;;;;;;5069989;28;20039;-67
2023/08/15 08:17:59;;;;;;;4.70;1.13;;;25.90;55.40;;;;;;5074373;28;20037;-68
2023/08/15 08:20:25;;;;;;;2.67;1.27;;;25.90;55.50;;;;;;5083167;28;20432;-70
2023/08/15 08:22:51;;;;;;;2.38;1.00;;;25.90;55.50;;;;;;5088766;28;20051;-69
2023/08/15 08:25:21;;;;;;;2.15;1.05;;;25.90;55.50;;;;;;5087837;28;20020;-70
2023/08/15 08:27:48;;;;;;;3.10;1.02;;;25.90;55.50;;;;;;5060211;28;20141;-70
2023/08/15 08:30:17;;;;;;;2.72;1.15;;;25.90;55.40;;;;;;5067893;28;20044;-70
2023/08/15 08:32:44;;;;;;;3.38;1.65;;;26.00;55.50;;;;;;5067031;28;20162;-68
2023/08/15 08:35:11;;;;;;;1.55;0.95;;;25.90;55.40;;;;;;5083146;28;20202;-67
2023/08/15 08:37:37;;;;;;;3.30;1.20;;;26.00;55.50;;;;;;5068447;28;20128;-70
2023/08/15 08:40:04;;;;;;;2.85;0.95;;;26.00;55.50;;;;;;5085716;28;20027;-70
2023/08/15 08:42:30;;;;;;;2.15;0.90;;;26.00;55.40;;;;;;5084986;28;20058;-69
2023/08/15 08:44:57;;;;;;;3.97;1.27;;;26.00;55.40;;;;;;5084108;28;20031;-72
2023/08/15 08:47:29;;;;;;;2.78;1.00;;;26.00;55.30;;;;;;5063612;28;20041;-70
2023/08/15 08:49:58;;;;;;;1.85;0.90;;;26.00;55.20;;;;;;5085661;28;20028;-70
2023/08/15 08:52:26;;;;;;;3.88;1.38;;;26.00;55.20;;;;;;5084180;28;20024;-69
2023/08/15 08:54:52;;;;;;;2.08;1.10;;;26.00;55.20;;;;;;5091960;28;20429;-69
2023/08/15 08:57:19;;;;;;;3.40;1.35;;;26.10;55.30;;;;;;5088163;28;20036;-70
2023/08/15 08:59:46;;;;;;;3.38;1.45;;;26.10;55.20;;;;;;5076138;28;20060;-68
2023/08/15 09:02:21;;;;;;;3.58;1.10;;;26.10;55.20;;;;;;5069396;28;20039;-69
2023/08/15 09:04:48;;;;;;;3.38;1.30;;;26.10;55.20;;;;;;5093237;28;20165;-68
2023/08/15 09:07:17;;;;;;;2.88;1.00;;;26.10;55.10;;;;;;5080462;28;20047;-69
2023/08/15 09:09:43;;;;;;;2.08;0.90;;;26.10;55.00;;;;;;5073545;28;20020;-69
2023/08/15 09:12:09;;;;;;;2.47;1.00;;;26.10;55.00;;;;;;5073896;28;20396;-68
2023/08/15 09:14:41;;;;;;;2.08;1.13;;;26.10;55.00;;;;;;5073513;28;20039;-69
2023/08/15 09:17:11;;;;;;;3.17;1.25;;;26.10;54.90;;;;;;5051634;28;20040;-68
2023/08/15 09:19:40;;;;;;;2.10;0.95;;;26.10;54.90;;;;;;5073123;28;20036;-67
2023/08/15 09:22:06;;;;;;;2.85;0.93;;;26.10;54.90;;;;;;5073033;28;20401;-68
2023/08/15 09:24:32;;;;;;;2.50;1.10;;;26.10;54.80;;;;;;5054935;28;20115;-68
2023/08/15 09:27:04;;;;;;;2.25;0.90;;;26.10;54.70;;;;;;5073428;28;20115;-69
2023/08/15 09:29:33;;;;;;;2.42;1.10;;;26.10;54.60;;;;;;5074687;28;20047;-70
2023/08/15 09:31:59;;;;;;;2.88;1.20;;;26.10;54.60;;;;;;5073590;28;20032;-70
2023/08/15 09:34:25;;;;;;;3.17;1.27;;;26.20;54.60;;;;;;5091550;28;20039;-69
2023/08/15 09:36:51;;;;;;;2.13;0.90;;;26.10;54.50;;;;;;5093460;28;20032;-70
2023/08/15 09:39:17;;;;;;;3.38;1.02;;;26.20;54.50;;;;;;5093246;28;20053;-68
2023/08/15 09:41:46;;;;;;;2.95;0.90;;;26.20;54.50;;;;;;5084021;28;20066;-71
2023/08/15 09:44:12;;;;;;;3.90;1.10;;;26.20;55.00;;;;;;5074949;28;20419;-69
2023/08/15 09:46:39;;;;;;;2.65;1.20;;;26.20;54.40;;;;;;5074876;28;20058;-68
2023/08/15 09:49:05;;;;;;;2.38;0.88;;;26.20;54.40;;;;;;5089209;28;20356;-68
2023/08/15 09:51:33;;;;;;;2.33;0.98;;;26.20;54.40;;;;;;5082265;28;20210;-68
2023/08/15 09:54:01;;;;;;;3.40;1.20;;;26.20;54.30;;;;;;5057675;28;20103;-69
2023/08/15 09:56:27;;;;;;;3.03;1.20;;;26.20;54.30;;;;;;5067902;28;20021;-72
2023/08/15 09:58:53;;;;;;;1.77;1.00;;;26.20;54.30;;;;;;5052733;28;20287;-70
2023/08/15 10:01:23;;;;;;;3.60;1.23;;;26.20;54.30;;;;;;5064802;28;20384;-69
2023/08/15 10:03:59;;;;;;;2.47;1.35;;;26.20;54.30;;;;;;5074577;28;20117;-69
2023/08/15 10:06:25;;;;;;;2.53;0.95;;;26.20;54.30;;;;;;5071213;28;20032;-70
2023/08/15 10:08:52;;;;;;;1.92;1.02;;;26.20;54.30;;;;;;5069277;28;20071;-69
2023/08/15 10:11:18;;;;;;;2.25;0.88;;;26.20;54.30;;;;;;5072382;28;20023;-69
2023/08/15 10:13:46;;;;;;;2.50;1.10;;;26.20;54.30;;;;;;5073973;28;20028;-69
2023/08/15 10:16:13;;;;;;;2.67;1.15;;;26.20;54.20;;;;;;5070777;28;20090;-67
2023/08/15 10:18:54;;;;;;;4.60;1.30;;;26.20;54.20;;;;;;5052103;28;20040;-69
2023/08/15 10:21:21;;;;;;;2.15;1.08;;;26.30;54.20;;;;;;5054674;28;20446;-69
2023/08/15 10:23:47;;;;;;;2.50;1.05;;;26.30;54.20;;;;;;5065068;28;20028;-72
2023/08/15 10:26:13;;;;;;;2.15;1.10;;;26.30;54.20;;;;;;5091976;28;20083;-71
2023/08/15 10:28:40;;;;;;;3.47;1.35;;;26.30;54.10;;;;;;5064789;28;20047;-69
2023/08/15 10:31:08;;;;;;;2.65;1.27;;;26.30;54.10;;;;;;5068199;28;20075;-70
2023/08/15 10:33:34;;;;;;;2.70;1.58;;;26.30;54.10;;;;;;5062452;28;20382;-67
2023/08/15 10:36:00;;;;;;;2.03;0.95;;;26.30;54.10;;;;;;5060927;28;20711;-71
2023/08/15 10:38:28;;;;;;;3.67;1.38;;;26.30;54.20;;;;;;5042063;28;20036;-69
2023/08/15 10:41:13;;;;;;;3.40;1.48;;;26.30;54.20;;;;;;5067492;28;20029;-70
2023/08/15 10:43:39;;;;;;;3.67;1.27;;;26.40;54.30;;;;;;5067803;28;20328;-68
2023/08/15 10:46:06;;;;;;;2.85;1.10;;;26.40;54.20;;;;;;5059994;28;20035;-74
2023/08/15 10:48:54;;;;;;;3.25;1.23;;;26.50;54.10;;;;;;5070937;28;20067;-72
2023/08/15 10:51:26;;;;;;;2.72;1.38;;;26.60;54.00;;;;;;5061370;28;20024;-74
2023/08/15 10:54:00;;;;;;;2.97;1.27;;;26.70;53.80;;;;;;5037570;28;20036;-70
2023/08/15 10:56:29;;;;;;;2.65;1.00;;;26.80;53.60;;;;;;5065577;28;20037;-72
2023/08/15 10:58:56;;;;;;;3.40;1.30;;;26.90;53.50;;;;;;5065037;28;20071;-74
2023/08/15 11:01:25;;;;;;;3.15;1.33;;;26.90;53.30;;;;;;5060008;28;20033;-72
2023/08/15 11:03:53;;;;;;;2.88;1.08;;;27.00;53.10;;;;;;5059554;28;20039;-68
2023/08/15 11:06:19;;;;;;;1.88;1.10;;;27.10;53.00;;;;;;5063593;28;20029;-67
2023/08/15 11:08:54;;;;;;;2.45;1.25;;;27.20;52.90;;;;;;5072088;28;20039;-64
2023/08/15 11:11:21;;;;;;;2.42;1.27;;;27.30;52.80;;;;;;5057437;28;20029;-68
2023/08/15 11:13:49;;;;;;;2.92;1.63;;;27.30;52.70;;;;;;5062799;28;20087;-64
2023/08/15 11:16:17;;;;;;;2.05;1.15;;;27.40;52.60;;;;;;5063568;28;20028;-68
2023/08/15 11:18:43;;;;;;;2.90;1.23;;;27.40;52.50;;;;;;5058354;28;20064;-68
2023/08/15 11:21:11;;;;;;;3.35;1.27;;;27.50;52.30;;;;;;5061538;28;20332;-67
2023/08/15 11:23:37;;;;;;;2.30;1.10;;;27.60;52.20;;;;;;5066768;28;20099;-70
2023/08/15 11:26:07;;;;;;;2.85;1.30;;;27.70;52.00;;;;;;5049114;28;20036;-70
2023/08/15 11:28:34;;;;;;;5.13;1.27;;;27.80;51.80;;;;;;5060548;28;20037;-66
2023/08/15 11:31:02;;;;;;;2.42;1.40;;;27.80;51.70;;;;;;5059840;28;20447;-66
2023/08/15 11:33:31;;;;;;;3.08;1.20;;;27.80;51.50;;;;;;5072197;28;20473;-68
2023/08/15 11:36:01;;;;;;;2.42;1.15;;;28.00;51.40;;;;;;5064319;28;20029;-68
2023/08/15 11:38:31;;;;;;;3.20;1.33;;;28.00;51.20;;;;;;5067606;28;20439;-63
2023/08/15 11:40:59;;;;;;;2.65;1.20;;;28.00;51.20;;;;;;5060212;28;20537;-63
2023/08/15 11:43:26;;;;;;;3.38;1.40;;;28.00;51.10;;;;;;5059403;28;20317;-64
2023/08/15 11:45:53;;;;;;;2.78;1.20;;;28.10;51.20;;;;;;5064868;28;20028;-67
2023/08/15 11:48:22;;;;;;;2.03;1.25;;;28.10;51.20;;;;;;5024137;28;20029;-69
2023/08/15 11:50:50;;;;;;;3.35;1.52;;;28.10;51.20;;;;;;5025974;28;20041;-70
2023/08/15 11:53:18;;;;;;;2.42;1.40;;;28.20;51.30;;;;;;5032140;28;20026;-67
2023/08/15 11:55:50;;;;;;;4.05;1.48;;;28.20;51.30;;;;;;5032724;28;20021;-68
2023/08/15 11:58:27;;;;;;;1.92;1.08;;;28.30;51.30;;;;;;5034356;28;20109;-67
2023/08/15 12:01:05;;;;;;;2.50;1.23;;;28.30;51.30;;;;;;5024158;28;20037;-66
2023/08/15 12:03:31;;;;;;;2.80;1.10;;;28.30;51.30;;;;;;5026976;28;20108;-66
2023/08/15 12:05:59;;;;;;;2.25;1.15;;;28.40;51.40;;;;;;5028628;28;20034;-65
2023/08/15 12:08:26;;;;;;;2.05;1.15;;;28.50;51.40;;;;;;5026337;28;20297;-64
2023/08/15 12:10:56;;;;;;;1.90;1.38;;;28.50;51.50;;;;;;5026040;28;20989;-65
2023/08/15 12:13:29;;;;;;;3.10;1.38;;;28.50;51.40;;;;;;5027276;28;20034;-66
2023/08/15 12:15:55;;;;;;;4.27;1.30;;;28.60;51.50;;;;;;5021288;28;20065;-69
2023/08/15 12:18:21;;;;;;;2.40;1.10;;;28.60;51.30;;;;;;5022997;28;20065;-73
2023/08/15 12:20:47;;;;;;;3.75;1.30;;;28.60;51.20;;;;;;5026646;28;20049;-73
2023/08/15 12:23:12;;;;;;;2.83;1.33;;;28.60;51.10;;;;;;5035213;28;20018;-70
2023/08/15 12:25:38;;;;;;;2.17;1.33;;;28.60;51.00;;;;;;5029992;28;20026;-66
2023/08/15 12:28:11;;;;;;;2.53;1.20;;;28.70;50.90;;;;;;5035585;28;20025;-67
2023/08/15 12:30:37;;;;;;;2.70;1.30;;;28.70;50.90;;;;;;5028917;28;20331;-69
2023/08/15 12:33:05;;;;;;;2.72;1.30;;;28.60;50.80;;;;;;5027634;28;20144;-70
2023/08/15 12:35:32;;;;;;;2.65;1.08;;;28.60;50.80;;;;;;5030021;28;20049;-69
2023/08/15 12:37:58;;;;;;;4.15;1.30;;;28.70;50.80;;;;;;5017964;28;20139;-69
2023/08/15 12:40:27;;;;;;;1.63;1.00;;;28.70;50.80;;;;;;5032331;28;20025;-72
2023/08/15 12:42:53;;;;;;;2.75;1.25;;;28.70;50.80;;;;;;5031312;28;20033;-72
2023/08/15 12:45:19;;;;;;;1.77;1.10;;;28.70;50.70;;;;;;5033581;28;20033;-66
2023/08/15 12:47:45;;;;;;;2.13;1.15;;;28.70;50.50;;;;;;5074065;28;20091;-68